createdAt,value
2024-02-11T00:00:42.286Z,88.80
2024-02-11T00:03:09.326Z,89.00
2024-02-11T00:05:36.127Z,89.00
2024-02-11T00:08:03.007Z,89.00
2024-02-11T00:10:29.882Z,88.90
2024-02-11T00:12:58.398Z,89.00
2024-02-11T00:15:25.943Z,89.00
2024-02-11T00:17:53.500Z,89.10
2024-02-11T00:20:20.766Z,89.20
2024-02-11T00:22:50.273Z,89.20
2024-02-11T00:25:18.209Z,89.20
2024-02-11T00:27:51.062Z,89.50
2024-02-11T00:30:18.419Z,89.40
2024-02-11T00:32:46.308Z,89.30
2024-02-11T00:35:16.900Z,89.30
2024-02-11T00:37:43.913Z,89.30
2024-02-11T00:40:12.078Z,89.30
2024-02-11T00:42:39.023Z,89.30
2024-02-11T00:45:06.455Z,89.20
2024-02-11T00:47:33.693Z,89.20
2024-02-11T00:50:01.208Z,89.30
2024-02-11T00:52:28.163Z,89.40
2024-02-11T00:54:55.426Z,89.40
2024-02-11T00:57:22.687Z,89.40
2024-02-11T00:59:49.945Z,89.50
2024-02-11T01:02:16.723Z,89.50
2024-02-11T01:04:44.182Z,89.60
2024-02-11T01:07:11.178Z,89.60
2024-02-11T01:09:38.089Z,89.50
2024-02-11T01:12:08.248Z,89.60
2024-02-11T01:14:35.033Z,89.70
2024-02-11T01:17:01.793Z,89.70
2024-02-11T01:19:28.587Z,89.70
2024-02-11T01:21:55.748Z,89.70
2024-02-11T01:24:23.411Z,89.60
2024-02-11T01:26:50.913Z,89.70
2024-02-11T01:29:19.152Z,89.80
2024-02-11T01:31:46.685Z,89.70
2024-02-11T01:34:13.636Z,89.70
2024-02-11T01:36:40.478Z,89.80
2024-02-11T01:39:07.387Z,89.90
2024-02-11T01:41:34.125Z,89.90
2024-02-11T01:44:01.631Z,89.90
2024-02-11T01:46:28.586Z,89.90
2024-02-11T01:48:56.023Z,89.90
2024-02-11T01:51:22.976Z,89.90
2024-02-11T01:53:50.391Z,89.90
2024-02-11T01:56:22.063Z,89.90
2024-02-11T01:58:50.496Z,90.00
2024-02-11T02:03:53.042Z,90.10
2024-02-11T02:06:20.097Z,90.00
2024-02-11T02:08:47.994Z,90.00
2024-02-11T02:11:15.100Z,90.10
2024-02-11T02:13:42.281Z,90.10
2024-02-11T02:16:09.431Z,90.20
2024-02-11T02:18:37.323Z,90.20
2024-02-11T02:21:10.258Z,90.20
2024-02-11T02:23:37.032Z,90.30
2024-02-11T02:26:09.311Z,90.30
2024-02-11T02:28:36.763Z,90.30
2024-02-11T02:31:05.221Z,90.30
2024-02-11T02:33:32.193Z,90.40
2024-02-11T02:35:59.027Z,90.30
2024-02-11T02:38:26.238Z,90.30
2024-02-11T02:40:53.178Z,90.40
2024-02-11T02:43:20.210Z,90.40
2024-02-11T02:45:46.983Z,90.40
2024-02-11T02:48:14.474Z,90.30
2024-02-11T02:50:45.244Z,90.40
2024-02-11T02:53:12.607Z,90.40
2024-02-11T02:55:40.036Z,90.50
2024-02-11T02:58:15.262Z,90.50
2024-02-11T03:00:42.657Z,90.40
2024-02-11T03:03:09.692Z,90.40
2024-02-11T03:05:42.161Z,90.50
2024-02-11T03:08:09.779Z,90.50
2024-02-11T03:10:37.148Z,90.50
2024-02-11T03:13:04.112Z,90.60
2024-02-11T03:15:31.379Z,90.60
2024-02-11T03:17:59.838Z,90.50
2024-02-11T03:20:29.283Z,90.50
2024-02-11T03:22:56.435Z,90.80
2024-02-11T03:25:23.302Z,90.70
2024-02-11T03:27:54.412Z,90.10
2024-02-11T03:30:23.578Z,89.80
2024-02-11T03:32:51.347Z,89.90
2024-02-11T03:35:18.644Z,90.10
2024-02-11T03:37:45.632Z,90.40
2024-02-11T03:40:16.670Z,90.40
2024-02-11T03:42:45.011Z,90.50
2024-02-11T03:45:12.973Z,90.50
2024-02-11T03:47:41.239Z,90.50
2024-02-11T03:50:15.640Z,90.60
2024-02-11T03:52:43.030Z,90.60
2024-02-11T03:55:11.884Z,90.50
2024-02-11T03:57:39.419Z,90.30
2024-02-11T04:00:15.742Z,90.40
2024-02-11T04:02:42.826Z,90.50
2024-02-11T04:05:13.707Z,90.50
2024-02-11T04:07:47.072Z,90.30
2024-02-11T04:10:24.056Z,90.40
2024-02-11T04:12:54.757Z,90.50
2024-02-11T04:15:25.802Z,90.60
2024-02-11T04:17:55.361Z,90.40
2024-02-11T04:20:26.563Z,90.60
2024-02-11T04:23:00.072Z,90.70
2024-02-11T04:25:35.685Z,90.80
2024-02-11T04:28:12.328Z,90.70
2024-02-11T04:30:43.338Z,90.70
2024-02-11T04:33:15.879Z,90.50
2024-02-11T04:35:43.157Z,90.70
2024-02-11T04:38:13.553Z,90.90
2024-02-11T04:40:41.654Z,90.90
2024-02-11T04:43:08.510Z,90.90
2024-02-11T04:45:38.410Z,90.80
2024-02-11T04:48:06.322Z,90.70
2024-02-11T04:50:36.132Z,90.70
2024-02-11T04:53:04.243Z,90.70
2024-02-11T04:55:44.889Z,90.60
2024-02-11T04:58:32.709Z,90.70
2024-02-11T05:00:59.737Z,90.70
2024-02-11T05:03:28.770Z,90.70
2024-02-11T05:05:55.763Z,90.70
2024-02-11T05:08:26.511Z,90.80
2024-02-11T05:10:55.266Z,90.70
2024-02-11T05:13:33.649Z,90.80
2024-02-11T05:16:04.690Z,90.90
2024-02-11T05:18:34.046Z,90.60
2024-02-11T05:21:03.653Z,90.50
2024-02-11T05:23:31.208Z,90.40
2024-02-11T05:25:59.278Z,90.50
2024-02-11T05:28:26.144Z,90.40
2024-02-11T05:30:56.939Z,90.40
2024-02-11T05:33:23.990Z,90.40
2024-02-11T05:35:51.880Z,90.40
2024-02-11T05:38:25.658Z,90.40
2024-02-11T05:40:57.598Z,90.40
2024-02-11T05:43:24.406Z,90.50
2024-02-11T05:45:51.210Z,90.50
2024-02-11T05:48:19.719Z,90.50
2024-02-11T05:50:47.541Z,90.50
2024-02-11T05:53:15.136Z,90.50
2024-02-11T05:55:42.332Z,90.40
2024-02-11T05:58:09.618Z,90.50
2024-02-11T06:00:38.406Z,90.50
2024-02-11T06:03:05.599Z,90.50
2024-02-11T06:05:33.128Z,90.50
2024-02-11T06:08:02.191Z,90.50
2024-02-11T06:10:36.442Z,90.40
2024-02-11T06:13:04.767Z,90.50
2024-02-11T06:15:32.865Z,90.50
2024-02-11T06:17:59.795Z,90.50
2024-02-11T06:20:26.968Z,90.60
2024-02-11T06:22:57.425Z,90.40
2024-02-11T06:25:24.575Z,90.50
2024-02-11T06:27:52.527Z,90.50
2024-02-11T06:30:21.261Z,90.50
2024-02-11T06:32:51.347Z,90.40
2024-02-11T06:35:21.146Z,90.40
2024-02-11T06:37:50.311Z,90.50
2024-02-11T06:40:19.168Z,90.40
2024-02-11T06:42:51.901Z,90.50
2024-02-11T06:45:19.524Z,90.50
2024-02-11T06:47:47.245Z,90.50
2024-02-11T06:50:15.820Z,90.50
2024-02-11T06:52:44.159Z,90.40
2024-02-11T06:55:13.409Z,90.40
2024-02-11T06:57:46.203Z,90.50
2024-02-11T07:00:16.515Z,90.40
2024-02-11T07:02:44.244Z,90.40
2024-02-11T07:05:11.796Z,90.30
2024-02-11T07:07:42.239Z,90.40
2024-02-11T07:10:10.015Z,90.30
2024-02-11T07:12:37.049Z,90.30
2024-02-11T07:15:05.898Z,90.30
2024-02-11T07:17:34.176Z,90.30
2024-02-11T07:20:01.450Z,90.30
2024-02-11T07:22:28.397Z,90.30
2024-02-11T07:24:56.545Z,90.30
2024-02-11T07:27:25.440Z,90.30
2024-02-11T07:29:53.085Z,90.30
2024-02-11T07:32:20.755Z,90.40
2024-02-11T07:34:48.361Z,90.40
2024-02-11T07:37:15.480Z,90.50
2024-02-11T07:39:42.864Z,90.50
2024-02-11T07:42:09.708Z,90.60
2024-02-11T07:44:40.437Z,90.60
2024-02-11T07:47:08.817Z,90.50
2024-02-11T07:49:36.082Z,90.70
2024-02-11T07:52:03.589Z,90.70
2024-02-11T07:54:32.251Z,90.70
2024-02-11T07:56:59.090Z,90.60
2024-02-11T07:59:25.987Z,90.60
2024-02-11T08:01:52.978Z,90.70
2024-02-11T08:04:21.836Z,90.80
2024-02-11T08:06:48.728Z,90.70
2024-02-11T08:09:15.634Z,90.70
2024-02-11T08:11:42.491Z,90.60
2024-02-11T08:14:09.532Z,90.70
2024-02-11T08:16:36.655Z,90.70
2024-02-11T08:19:04.852Z,90.80
2024-02-11T08:21:32.496Z,90.80
2024-02-11T08:23:59.600Z,90.60
2024-02-11T08:26:27.685Z,90.70
2024-02-11T08:28:55.041Z,90.70
2024-02-11T08:31:21.862Z,90.70
2024-02-11T08:33:49.244Z,90.70
2024-02-11T08:36:17.006Z,90.70
2024-02-11T08:38:43.903Z,90.60
2024-02-11T08:41:11.546Z,90.60
2024-02-11T08:43:38.949Z,90.60
2024-02-11T08:46:06.352Z,90.70
2024-02-11T08:48:34.150Z,90.70
2024-02-11T08:51:02.187Z,90.70
2024-02-11T08:53:31.788Z,90.70
2024-02-11T08:56:02.452Z,90.60
2024-02-11T08:58:29.839Z,90.50
2024-02-11T09:00:57.397Z,90.50
2024-02-11T09:03:24.501Z,90.50
2024-02-11T09:05:58.641Z,90.70
2024-02-11T09:08:26.881Z,90.70
2024-02-11T09:10:53.967Z,90.50
2024-02-11T09:13:20.940Z,90.60
2024-02-11T09:15:47.655Z,90.70
2024-02-11T09:18:16.958Z,90.60
2024-02-11T09:20:44.794Z,90.50
2024-02-11T09:23:12.099Z,90.50
2024-02-11T09:25:40.374Z,90.50
2024-02-11T09:28:08.151Z,90.40
2024-02-11T09:30:35.155Z,90.30
2024-02-11T09:33:02.918Z,90.20
2024-02-11T09:35:30.160Z,90.20
2024-02-11T09:37:57.094Z,90.20
2024-02-11T09:40:23.973Z,90.10
2024-02-11T09:42:52.055Z,90.30
2024-02-11T09:45:21.202Z,90.20
2024-02-11T09:47:52.073Z,90.20
2024-02-11T09:50:19.852Z,90.20
2024-02-11T09:52:47.935Z,90.20
2024-02-11T09:55:21.279Z,90.10
2024-02-11T09:57:48.607Z,90.00
2024-02-11T10:00:16.871Z,90.00
2024-02-11T10:02:45.912Z,90.10
2024-02-11T10:05:17.024Z,89.90
2024-02-11T10:07:45.628Z,89.90
2024-02-11T10:10:14.897Z,89.80
2024-02-11T10:12:46.028Z,89.80
2024-02-11T10:15:13.905Z,89.80
2024-02-11T10:17:43.051Z,89.80
2024-02-11T10:20:11.494Z,89.80
2024-02-11T10:22:43.459Z,89.90
2024-02-11T10:25:12.912Z,89.80
2024-02-11T10:27:40.246Z,89.80
2024-02-11T10:30:11.424Z,89.70
2024-02-11T10:32:39.123Z,89.70
2024-02-11T10:35:06.797Z,89.60
2024-02-11T10:37:39.598Z,89.50
2024-02-11T10:40:15.856Z,89.50
2024-02-11T10:42:42.881Z,89.40
2024-02-11T10:45:12.100Z,89.10
2024-02-11T10:47:40.138Z,89.20
2024-02-11T10:50:08.050Z,89.40
2024-02-11T10:52:42.682Z,89.30
2024-02-11T10:55:12.359Z,89.20
2024-02-11T10:57:57.613Z,89.10
2024-02-11T11:00:27.557Z,89.30
2024-02-11T11:02:59.993Z,89.40
2024-02-11T11:05:35.915Z,89.50
2024-02-11T11:08:03.622Z,89.50
2024-02-11T11:10:38.358Z,89.40
2024-02-11T11:13:05.738Z,89.50
2024-02-11T11:15:33.230Z,89.20
2024-02-11T11:18:03.007Z,89.40
2024-02-11T11:20:32.156Z,89.40
2024-02-11T11:23:00.410Z,89.00
2024-02-11T11:25:32.385Z,88.50
2024-02-11T11:28:11.473Z,87.90
2024-02-11T11:30:38.576Z,87.60
2024-02-11T11:33:06.364Z,87.90
2024-02-11T11:35:33.780Z,88.00
2024-02-11T11:38:06.746Z,87.40
2024-02-11T11:40:38.743Z,87.80
2024-02-11T11:43:21.587Z,87.60
2024-02-11T11:45:55.802Z,87.30
2024-02-11T11:48:25.768Z,87.60
2024-02-11T11:51:00.083Z,87.60
2024-02-11T11:53:28.371Z,87.80
2024-02-11T11:56:02.438Z,87.50
2024-02-11T11:58:32.131Z,87.30
2024-02-11T12:01:01.146Z,87.50
2024-02-11T12:03:29.810Z,87.30
2024-02-11T12:05:57.621Z,87.10
2024-02-11T12:08:26.722Z,87.10
2024-02-11T12:11:04.878Z,86.80
2024-02-11T12:13:34.086Z,87.10
2024-02-11T12:16:03.338Z,86.80
2024-02-11T12:18:31.423Z,86.70
2024-02-11T12:20:59.143Z,86.50
2024-02-11T12:23:26.288Z,86.70
2024-02-11T12:25:57.740Z,86.60
2024-02-11T12:28:28.890Z,86.50
2024-02-11T12:31:14.999Z,86.30
2024-02-11T12:33:43.733Z,85.40
2024-02-11T12:36:14.705Z,85.50
2024-02-11T12:38:48.232Z,85.50
2024-02-11T12:41:16.768Z,85.30
2024-02-11T12:43:48.255Z,85.10
2024-02-11T12:46:15.684Z,84.90
2024-02-11T12:48:44.342Z,84.50
2024-02-11T12:51:17.716Z,84.50
2024-02-11T12:53:46.709Z,84.50
2024-02-11T12:56:14.919Z,84.40
2024-02-11T12:58:43.793Z,84.30
2024-02-11T13:01:15.618Z,84.20
2024-02-11T13:03:43.809Z,83.90
2024-02-11T13:06:11.399Z,84.20
2024-02-11T13:08:39.294Z,84.20
2024-02-11T13:11:07.171Z,84.00
2024-02-11T13:13:35.560Z,83.90
2024-02-11T13:16:03.416Z,84.00
2024-02-11T13:18:30.588Z,84.00
2024-02-11T13:20:59.206Z,83.60
2024-02-11T13:23:27.005Z,83.80
2024-02-11T13:25:54.399Z,83.90
2024-02-11T13:28:22.707Z,83.80
2024-02-11T13:30:54.413Z,83.80
2024-02-11T13:33:27.117Z,83.50
2024-02-11T13:35:54.470Z,83.60
2024-02-11T13:38:24.195Z,83.50
2024-02-11T13:40:51.169Z,83.50
2024-02-11T13:43:18.432Z,83.60
2024-02-11T13:45:45.768Z,83.00
2024-02-11T13:48:12.813Z,83.00
2024-02-11T13:50:40.705Z,82.80
2024-02-11T13:53:08.176Z,82.90
2024-02-11T13:55:35.492Z,83.10
2024-02-11T13:58:03.729Z,83.00
2024-02-11T14:00:30.873Z,82.90
2024-02-11T14:02:59.035Z,82.80
2024-02-11T14:05:26.074Z,82.90
2024-02-11T14:07:53.336Z,82.60
2024-02-11T14:10:22.036Z,82.80
2024-02-11T14:12:50.056Z,82.90
2024-02-11T14:15:17.827Z,83.00
2024-02-11T14:17:51.475Z,83.00
2024-02-11T14:20:18.957Z,82.90
2024-02-11T14:22:46.606Z,82.80
2024-02-11T14:25:16.892Z,82.80
2024-02-11T14:27:49.409Z,82.70
2024-02-11T14:30:18.847Z,82.70
2024-02-11T14:32:49.709Z,82.80
2024-02-11T14:35:17.978Z,82.40
2024-02-11T14:37:45.301Z,82.20
2024-02-11T14:40:16.866Z,81.70
2024-02-11T14:42:48.208Z,81.60
2024-02-11T14:45:16.215Z,81.50
2024-02-11T15:13:18.627Z,81.30
2024-02-11T15:15:45.692Z,80.90
2024-02-11T15:18:13.304Z,80.90
2024-02-11T15:20:41.925Z,81.10
2024-02-11T15:23:10.716Z,81.30
2024-02-11T15:25:38.104Z,81.60
2024-02-11T15:28:05.192Z,81.70
2024-02-11T15:30:31.969Z,81.60
2024-02-11T15:32:59.987Z,81.80
2024-02-11T15:35:29.289Z,81.80
2024-02-11T15:37:56.689Z,81.70
2024-02-11T15:40:23.655Z,82.30
2024-02-11T15:42:50.593Z,81.80
2024-02-11T15:45:19.290Z,82.10
2024-02-11T15:47:46.272Z,82.30
2024-02-11T15:50:13.399Z,82.50
2024-02-11T15:52:40.567Z,82.60
2024-02-11T15:55:08.539Z,82.80
2024-02-11T15:57:36.697Z,82.80
2024-02-11T16:00:03.752Z,83.00
2024-02-11T16:02:30.549Z,83.00
2024-02-11T16:04:57.435Z,83.10
2024-02-11T16:07:24.387Z,83.20
2024-02-11T16:09:52.671Z,83.30
2024-02-11T16:12:19.484Z,83.50
2024-02-11T16:14:46.562Z,83.60
2024-02-11T16:17:13.493Z,83.70
2024-02-11T16:19:41.700Z,83.70
2024-02-11T16:22:08.883Z,83.70
2024-02-11T16:24:36.846Z,83.80
2024-02-11T16:27:03.887Z,83.80
2024-02-11T16:29:31.347Z,83.90
2024-02-11T16:32:01.407Z,84.00
2024-02-11T16:34:28.339Z,84.10
2024-02-11T16:36:55.118Z,84.30
2024-02-11T16:39:21.924Z,84.40
2024-02-11T16:41:48.693Z,84.40
2024-02-11T16:44:18.436Z,84.50
2024-02-11T16:46:45.306Z,84.60
2024-02-11T16:49:12.351Z,84.70
2024-02-11T16:51:39.124Z,84.80
2024-02-11T16:54:06.074Z,84.80
2024-02-11T16:56:32.908Z,84.90
2024-02-11T16:59:00.658Z,85.00
2024-02-11T17:01:27.535Z,85.10
2024-02-11T17:03:54.304Z,85.20
2024-02-11T17:06:21.196Z,85.30
2024-02-11T17:08:48.138Z,85.30
2024-02-11T17:11:15.108Z,85.40
2024-02-11T17:13:42.388Z,85.50
2024-02-11T17:16:09.204Z,85.50
2024-02-11T17:18:36.207Z,85.60
2024-02-11T17:21:11.261Z,85.70
2024-02-11T17:23:39.833Z,85.70
2024-02-11T17:26:12.314Z,85.80
2024-02-11T17:28:42.436Z,85.80
2024-02-11T17:31:09.276Z,85.90
2024-02-11T17:33:37.380Z,85.90
2024-02-11T17:36:05.078Z,85.90
2024-02-11T17:38:32.571Z,85.90
2024-02-11T17:40:59.535Z,86.00
2024-02-11T17:43:27.228Z,86.00
2024-02-11T17:45:54.138Z,86.00
2024-02-11T17:48:21.059Z,86.00
2024-02-11T17:50:53.108Z,86.00
2024-02-11T17:53:22.004Z,86.10
2024-02-11T17:55:53.237Z,86.30
2024-02-11T17:58:20.136Z,86.30
2024-02-11T18:00:56.554Z,86.30
2024-02-11T18:03:27.505Z,86.40
2024-02-11T18:05:54.574Z,86.60
2024-02-11T18:08:21.482Z,86.50
2024-02-11T18:10:48.959Z,86.70
2024-02-11T18:13:15.813Z,86.70
2024-02-11T18:15:43.368Z,86.80
2024-02-11T18:18:11.728Z,86.80
2024-02-11T18:20:39.981Z,86.90
2024-02-11T18:23:07.645Z,86.90
2024-02-11T18:25:48.268Z,87.00
2024-02-11T18:28:22.396Z,87.10
2024-02-11T18:30:49.900Z,87.10
2024-02-11T18:33:18.013Z,87.10
2024-02-11T18:35:45.040Z,87.10
2024-02-11T18:38:12.145Z,87.30
2024-02-11T18:40:39.040Z,87.20
2024-02-11T18:43:09.201Z,87.30
2024-02-11T18:45:36.442Z,87.40
2024-02-11T18:48:03.547Z,87.30
2024-02-11T18:50:30.416Z,87.20
2024-02-11T18:52:58.970Z,87.40
2024-02-11T18:55:26.579Z,87.40
2024-02-11T18:57:54.518Z,87.60
2024-02-11T19:00:21.654Z,87.70
2024-02-11T19:02:48.681Z,87.60
2024-02-11T19:05:17.436Z,87.70
2024-02-11T19:07:44.695Z,87.80
2024-02-11T19:10:24.265Z,87.80
2024-02-11T19:12:51.081Z,87.70
2024-02-11T19:15:18.353Z,87.80
2024-02-11T19:17:49.371Z,87.90
2024-02-11T19:20:20.843Z,87.90
2024-02-11T19:22:50.708Z,87.90
2024-02-11T19:25:18.922Z,87.90
2024-02-11T19:27:47.237Z,88.00
2024-02-11T19:30:15.090Z,88.00
2024-02-11T19:32:42.241Z,88.10
2024-02-11T19:35:10.320Z,88.10
2024-02-11T19:37:39.020Z,88.00
2024-02-11T19:40:08.224Z,88.00
2024-02-11T19:42:39.004Z,88.10
2024-02-11T19:45:07.870Z,88.10
2024-02-11T19:47:39.661Z,88.20
2024-02-11T19:50:13.423Z,88.20
2024-02-11T19:52:40.398Z,88.20
2024-02-11T19:55:11.885Z,88.30
2024-02-11T19:57:41.737Z,88.40
2024-02-11T20:00:12.275Z,88.40
2024-02-11T20:02:43.191Z,88.50
2024-02-11T20:05:14.229Z,88.40
2024-02-11T20:07:42.029Z,88.40
2024-02-11T20:10:10.681Z,88.50
2024-02-11T20:12:39.142Z,88.60
2024-02-11T20:15:07.463Z,88.70
2024-02-11T20:17:36.168Z,88.70
2024-02-11T20:20:07.309Z,88.80
2024-02-11T20:22:34.500Z,88.90
2024-02-11T20:25:01.274Z,88.90
2024-02-11T20:27:28.789Z,89.00
2024-02-11T20:29:55.555Z,89.10
2024-02-11T20:32:23.158Z,89.10
2024-02-11T20:34:49.978Z,89.10
2024-02-11T20:37:17.823Z,89.00
2024-02-11T20:39:47.058Z,89.00
2024-02-11T20:42:13.819Z,89.10
2024-02-11T20:44:40.663Z,89.10
2024-02-11T20:47:08.300Z,89.00
2024-02-11T20:49:35.754Z,89.10
2024-02-11T20:52:02.537Z,89.00
2024-02-11T20:54:31.755Z,89.00
2024-02-11T20:56:58.994Z,89.10
2024-02-11T20:59:25.872Z,89.10
2024-02-11T21:01:52.887Z,89.00
2024-02-11T21:04:21.240Z,88.90
2024-02-11T21:06:49.311Z,89.00
2024-02-11T21:09:16.594Z,88.90
2024-02-11T21:11:46.632Z,88.70
2024-02-11T21:14:13.783Z,88.60
2024-02-11T21:16:42.170Z,88.60
2024-02-11T21:19:09.791Z,88.60
2024-02-11T21:21:39.788Z,88.60
2024-02-11T21:24:11.384Z,88.50
2024-02-11T21:26:38.425Z,88.60
2024-02-11T21:29:05.399Z,88.70
2024-02-11T21:31:34.356Z,89.00
2024-02-11T21:34:01.762Z,88.90
2024-02-11T21:36:28.737Z,88.90
2024-02-11T21:38:55.610Z,89.10
2024-02-11T21:41:22.460Z,89.10
2024-02-11T21:43:50.529Z,89.10
2024-02-11T21:49:03.792Z,88.80
2024-02-11T21:51:35.845Z,88.60
2024-02-11T21:54:03.297Z,88.60
2024-02-11T21:56:30.169Z,88.60
2024-02-11T21:58:57.032Z,88.60
2024-02-11T22:01:24.237Z,88.60
2024-02-11T22:03:51.365Z,88.60
2024-02-11T22:06:20.061Z,88.80
2024-02-11T22:08:47.598Z,88.90
2024-02-11T22:11:14.435Z,88.90
2024-02-11T22:13:41.187Z,88.80
2024-02-11T22:19:23.863Z,88.80
2024-02-11T22:21:50.718Z,88.90
2024-02-11T22:24:18.605Z,88.80
2024-02-11T22:26:45.362Z,88.70
2024-02-11T22:29:12.299Z,88.60
2024-02-11T22:31:39.418Z,88.60
2024-02-11T22:34:06.546Z,88.50
2024-02-11T22:36:33.475Z,88.50
2024-02-11T22:39:00.295Z,88.50
2024-02-11T22:41:28.334Z,88.50
2024-02-11T22:43:55.448Z,88.70
2024-02-11T22:46:22.355Z,88.70
2024-02-11T22:48:49.211Z,88.80
2024-02-11T22:51:16.090Z,88.90
2024-02-11T22:53:43.037Z,88.90
2024-02-11T22:56:10.995Z,88.70
2024-02-11T22:58:37.827Z,88.50
2024-02-11T23:01:04.932Z,88.40
2024-02-11T23:03:33.509Z,88.10
2024-02-11T23:06:00.480Z,87.80
2024-02-11T23:08:27.426Z,87.70
2024-02-11T23:10:54.443Z,87.70
2024-02-11T23:13:21.310Z,88.00
2024-02-11T23:15:52.547Z,88.40
2024-02-11T23:18:19.913Z,88.40
2024-02-11T23:20:47.012Z,88.40
2024-02-11T23:23:13.842Z,88.10
2024-02-11T23:25:40.757Z,87.90
2024-02-11T23:28:09.015Z,87.80
2024-02-11T23:30:38.806Z,87.90
2024-02-11T23:33:07.435Z,88.10
2024-02-11T23:35:37.298Z,88.40
2024-02-11T23:38:04.818Z,89.20
2024-02-11T23:40:34.579Z,89.90
2024-02-11T23:43:01.484Z,90.50
2024-02-11T23:45:28.218Z,90.80
2024-02-11T23:47:55.315Z,90.80
2024-02-11T23:50:23.976Z,90.60
2024-02-11T23:52:51.353Z,90.40
2024-02-11T23:55:18.347Z,90.10
2024-02-11T23:57:46.233Z,90.00
